createdAt,value
2018-07-26T00:00:58.214Z,47.51
2018-07-26T00:01:58.188Z,41.86
2018-07-26T00:02:58.154Z,42.63
2018-07-26T00:03:58.118Z,36.69
2018-07-26T00:04:58.124Z,36.69
2018-07-26T00:05:58.064Z,38.70
2018-07-26T00:06:58.008Z,35.92
2018-07-26T00:07:57.994Z,35.44
2018-07-26T00:08:57.946Z,31.98
2018-07-26T00:09:57.916Z,30.84
2018-07-26T00:10:57.873Z,27.00
2018-07-26T00:11:57.858Z,23.47
2018-07-26T00:12:57.813Z,31.80
2018-07-26T00:13:57.792Z,33.24
2018-07-26T00:14:57.751Z,36.79
2018-07-26T00:15:57.712Z,40.04
2018-07-26T00:16:57.689Z,44.54
2018-07-26T00:17:57.633Z,43.30
2018-07-26T00:18:57.611Z,46.94
2018-07-26T00:19:57.581Z,43.59
2018-07-26T00:20:57.542Z,40.81
2018-07-26T00:21:57.518Z,45.31
2018-07-26T00:22:57.472Z,48.57
2018-07-26T00:23:57.455Z,49.43
2018-07-26T00:24:57.408Z,45.59
2018-07-26T00:25:57.368Z,44.64
2018-07-26T00:26:57.362Z,42.90
2018-07-26T00:27:57.316Z,37.15
2018-07-26T00:28:57.286Z,30.35
2018-07-26T00:29:57.240Z,23.36
2018-07-26T00:30:57.210Z,23.46
2018-07-26T00:31:57.173Z,25.38
2018-07-26T00:32:57.165Z,28.06
2018-07-26T00:33:57.099Z,32.09
2018-07-26T00:34:57.089Z,36.79
2018-07-26T00:35:57.048Z,39.35
2018-07-26T00:36:57.012Z,36.67
2018-07-26T00:37:56.974Z,28.72
2018-07-26T00:38:56.941Z,27.19
2018-07-26T00:39:56.912Z,28.15
2018-07-26T00:40:56.882Z,31.88
2018-07-26T00:41:56.838Z,34.75
2018-07-26T00:42:56.813Z,23.27
2018-07-26T00:43:56.778Z,20.39
2018-07-26T00:44:56.737Z,23.17
2018-07-26T00:45:56.719Z,26.92
2018-07-26T00:46:56.723Z,31.71
2018-07-26T00:47:56.649Z,33.81
2018-07-26T00:48:56.611Z,38.70
2018-07-26T00:49:56.679Z,42.34
2018-07-26T00:50:56.564Z,39.47
2018-07-26T00:51:56.506Z,34.94
2018-07-26T00:52:56.512Z,34.18
2018-07-26T00:53:56.429Z,29.20
2018-07-26T00:54:56.468Z,24.80
2018-07-26T00:55:56.390Z,23.55
2018-07-26T00:56:56.368Z,25.18
2018-07-26T00:57:56.312Z,28.81
2018-07-26T00:58:56.279Z,30.83
2018-07-26T00:59:56.302Z,27.09
2018-07-26T01:00:56.255Z,21.53
2018-07-26T01:01:56.157Z,20.19
2018-07-26T01:02:56.153Z,21.72
2018-07-26T01:03:56.123Z,24.69
2018-07-26T01:04:56.083Z,25.55
2018-07-26T01:05:56.125Z,20.48
2018-07-26T01:06:56.015Z,17.41
2018-07-26T01:07:55.996Z,4.69
2018-07-26T01:08:55.931Z,3.16
2018-07-26T01:09:55.964Z,3.44
2018-07-26T01:10:55.892Z,6.12
2018-07-26T01:11:55.851Z,9.28
2018-07-26T01:12:55.800Z,11.19
2018-07-26T01:13:55.758Z,12.06
2018-07-26T01:14:55.750Z,16.27
2018-07-26T01:15:55.704Z,22.50
2018-07-26T01:16:55.663Z,25.16
2018-07-26T01:17:55.635Z,21.25
2018-07-26T01:18:55.604Z,20.78
2018-07-26T01:19:55.567Z,25.95
2018-07-26T01:20:55.554Z,29.77
2018-07-26T01:21:55.503Z,30.83
2018-07-26T01:22:55.469Z,28.05
2018-07-26T01:23:55.445Z,28.90
2018-07-26T01:24:55.392Z,27.38
2018-07-26T01:25:55.391Z,27.47
2018-07-26T01:26:55.376Z,25.26
2018-07-26T01:27:55.291Z,25.36
2018-07-26T01:28:55.262Z,19.33
2018-07-26T01:29:55.234Z,18.85
2018-07-26T01:30:55.212Z,18.85
2018-07-26T01:31:55.170Z,16.36
2018-07-26T01:32:55.167Z,18.95
2018-07-26T01:33:55.163Z,20.20
2018-07-26T01:34:55.077Z,18.56
2018-07-26T01:35:55.013Z,14.06
2018-07-26T01:36:55.000Z,13.11
2018-07-26T01:37:54.990Z,15.61
2018-07-26T01:38:54.924Z,21.15
2018-07-26T01:39:54.926Z,22.11
2018-07-26T01:40:54.862Z,24.60
2018-07-26T01:41:54.818Z,27.58
2018-07-26T01:42:54.772Z,28.61
2018-07-26T01:43:54.748Z,25.74
2018-07-26T01:44:54.717Z,24.98
2018-07-26T01:45:54.685Z,24.02
2018-07-26T01:46:54.731Z,29.19
2018-07-26T01:47:54.611Z,26.98
2018-07-26T01:48:54.578Z,20.95
2018-07-26T01:49:54.564Z,13.20
2018-07-26T01:50:54.532Z,12.15
2018-07-26T01:51:54.497Z,10.33
2018-07-26T01:52:54.451Z,6.41
2018-07-26T01:53:54.407Z,1.81
2018-07-26T01:54:54.392Z,4.02
2018-07-26T01:55:54.350Z,6.98
2018-07-26T01:56:54.385Z,12.44
2018-07-26T01:57:54.300Z,19.13
2018-07-26T01:58:54.254Z,17.61
2018-07-26T01:59:54.264Z,21.05
2018-07-26T02:00:54.189Z,21.91
2018-07-26T02:01:54.127Z,20.29
2018-07-26T02:02:54.098Z,21.34
2018-07-26T02:03:54.076Z,19.52
2018-07-26T02:04:54.042Z,16.17
2018-07-26T02:05:54.006Z,13.97
2018-07-26T02:06:54.007Z,12.82
2018-07-26T02:07:54.005Z,14.06
2018-07-26T02:08:53.941Z,9.76
2018-07-26T02:09:53.878Z,14.06
2018-07-26T02:10:53.827Z,17.32
2018-07-26T02:11:53.798Z,19.13
2018-07-26T02:12:53.760Z,19.71
2018-07-26T02:13:53.741Z,15.88
2018-07-26T02:14:53.760Z,13.20
2018-07-26T02:15:53.675Z,13.96
2018-07-26T02:16:53.648Z,13.40
2018-07-26T02:17:53.599Z,15.02
2018-07-26T02:18:53.561Z,15.11
2018-07-26T02:19:53.543Z,15.69
2018-07-26T02:20:53.496Z,19.03
2018-07-26T02:21:53.478Z,21.23
2018-07-26T02:22:53.421Z,19.13
2018-07-26T02:23:53.400Z,11.57
2018-07-26T02:24:53.375Z,6.21
2018-07-26T02:25:53.331Z,6.88
2018-07-26T02:26:53.299Z,8.03
2018-07-26T02:27:53.269Z,0.00
2018-07-26T02:28:53.231Z,0.00
2018-07-26T02:29:53.235Z,0.00
2018-07-26T02:30:53.185Z,0.00
2018-07-26T02:31:53.157Z,0.00
2018-07-26T02:32:53.097Z,0.00
2018-07-26T02:33:53.057Z,0.00
2018-07-26T02:34:53.014Z,0.00
2018-07-26T02:35:52.999Z,0.38
2018-07-26T02:36:52.993Z,2.87
2018-07-26T02:37:52.911Z,3.73
2018-07-26T02:38:52.885Z,10.42
2018-07-26T02:39:52.862Z,12.62
2018-07-26T02:40:52.813Z,8.70
2018-07-26T02:41:52.760Z,2.39
2018-07-26T02:42:52.765Z,0.00
2018-07-26T02:43:52.778Z,0.00
2018-07-26T02:44:52.704Z,2.87
2018-07-26T02:45:52.665Z,1.91
2018-07-26T02:46:52.606Z,0.00
2018-07-26T02:47:52.587Z,0.00
2018-07-26T02:48:52.605Z,0.00
2018-07-26T02:49:52.532Z,0.00
2018-07-26T02:50:52.533Z,0.00
2018-07-26T02:51:52.473Z,0.00
2018-07-26T02:52:52.399Z,0.00
2018-07-26T02:53:52.955Z,0.00
2018-07-26T02:54:52.335Z,0.00
2018-07-26T02:55:52.316Z,0.00
2018-07-26T02:56:52.312Z,2.01
2018-07-26T02:57:52.251Z,5.93
2018-07-26T02:58:52.190Z,10.42
2018-07-26T02:59:52.174Z,4.11
2018-07-26T03:00:52.124Z,0.00
2018-07-26T03:01:52.106Z,0.00
2018-07-26T03:02:52.050Z,0.00
2018-07-26T03:03:52.024Z,0.00
2018-07-26T03:04:52.001Z,0.00
2018-07-26T03:05:51.957Z,0.00
2018-07-26T03:06:51.922Z,0.00
2018-07-26T03:07:51.873Z,0.29
2018-07-26T03:08:51.849Z,3.16
2018-07-26T03:09:51.811Z,2.58
2018-07-26T03:10:51.777Z,3.06
2018-07-26T03:11:51.742Z,4.11
2018-07-26T03:12:51.700Z,3.82
2018-07-26T03:13:51.674Z,6.12
2018-07-26T03:14:51.644Z,6.30
2018-07-26T03:15:51.618Z,2.20
2018-07-26T03:16:51.582Z,0.09
2018-07-26T03:17:51.546Z,0.00
2018-07-26T03:18:51.509Z,0.00
2018-07-26T03:19:51.468Z,0.19
2018-07-26T03:20:51.466Z,0.09
2018-07-26T03:21:51.404Z,0.00
2018-07-26T03:22:51.368Z,0.00
2018-07-26T03:23:51.335Z,0.00
2018-07-26T03:24:51.292Z,0.00
2018-07-26T03:25:51.266Z,0.00
2018-07-26T03:26:51.247Z,0.00
2018-07-26T03:27:51.196Z,0.00
2018-07-26T03:28:51.202Z,0.00
2018-07-26T03:29:51.124Z,0.00
2018-07-26T03:30:51.103Z,0.00
2018-07-26T03:31:51.051Z,0.00
2018-07-26T03:32:51.029Z,0.00
2018-07-26T03:33:50.997Z,0.00
2018-07-26T03:34:50.957Z,0.00
2018-07-26T03:35:50.914Z,0.00
2018-07-26T03:36:50.891Z,0.00
2018-07-26T03:37:50.844Z,0.00
2018-07-26T03:38:50.817Z,0.00
2018-07-26T03:39:50.777Z,0.00
2018-07-26T03:40:50.759Z,0.00
2018-07-26T03:41:50.712Z,0.00
2018-07-26T03:42:50.711Z,0.00
2018-07-26T03:43:50.656Z,0.00
2018-07-26T03:44:50.602Z,0.00
2018-07-26T03:45:50.562Z,0.00
2018-07-26T03:46:50.547Z,0.00
2018-07-26T03:47:50.499Z,0.00
2018-07-26T03:48:50.515Z,0.00
2018-07-26T03:49:50.465Z,0.00
2018-07-26T03:50:50.389Z,0.00
2018-07-26T03:51:50.379Z,1.05
2018-07-26T03:52:50.361Z,2.67
2018-07-26T03:53:50.298Z,1.53
2018-07-26T03:54:50.257Z,0.00
2018-07-26T03:55:50.216Z,0.00
2018-07-26T03:56:50.194Z,0.00
2018-07-26T03:57:50.282Z,0.00
2018-07-26T03:58:50.119Z,0.00
2018-07-26T03:59:50.077Z,0.00
2018-07-26T04:00:50.041Z,0.00
2018-07-26T04:01:50.003Z,0.00
2018-07-26T04:02:49.971Z,0.00
2018-07-26T04:03:49.963Z,0.00
2018-07-26T04:04:50.070Z,0.00
2018-07-26T04:05:49.879Z,2.48
2018-07-26T04:06:49.837Z,5.44
2018-07-26T04:07:49.802Z,6.79
2018-07-26T04:08:49.786Z,5.16
2018-07-26T04:09:49.754Z,0.00
2018-07-26T04:10:49.723Z,0.00
2018-07-26T04:11:49.661Z,0.00
2018-07-26T04:12:49.621Z,0.00
2018-07-26T04:13:49.596Z,0.00
2018-07-26T04:14:49.551Z,0.00
2018-07-26T04:15:49.531Z,0.00
2018-07-26T04:16:49.491Z,0.00
2018-07-26T04:17:49.460Z,0.00
2018-07-26T04:18:49.435Z,0.00
2018-07-26T04:19:49.377Z,0.00
2018-07-26T04:20:49.348Z,0.00
2018-07-26T04:21:49.325Z,0.00
2018-07-26T04:22:49.280Z,0.00
2018-07-26T04:23:49.264Z,0.00
2018-07-26T04:24:49.301Z,0.00
2018-07-26T04:25:49.207Z,0.38
2018-07-26T04:26:49.144Z,1.62
2018-07-26T04:27:49.140Z,2.68
2018-07-26T04:28:49.119Z,4.21
2018-07-26T04:29:49.062Z,6.22
2018-07-26T04:30:49.034Z,6.70
2018-07-26T04:31:49.055Z,10.72
2018-07-26T04:32:48.938Z,8.13
2018-07-26T04:33:48.912Z,8.13
2018-07-26T04:34:48.869Z,9.38
2018-07-26T04:35:48.840Z,9.56
2018-07-26T04:36:48.859Z,9.28
2018-07-26T04:37:48.773Z,11.96
2018-07-26T04:38:48.723Z,14.06
2018-07-26T04:39:48.773Z,13.97
2018-07-26T04:40:48.659Z,12.92
2018-07-26T04:41:48.644Z,15.51
2018-07-26T04:42:48.607Z,15.61
2018-07-26T04:43:48.565Z,15.41
2018-07-26T04:44:48.531Z,16.94
2018-07-26T04:45:48.524Z,15.51
2018-07-26T04:46:48.454Z,18.48
2018-07-26T04:47:48.472Z,23.57
2018-07-26T04:48:48.405Z,32.67
2018-07-26T04:49:48.374Z,51.46
2018-07-26T04:50:48.326Z,61.21
2018-07-26T04:51:48.294Z,63.51
2018-07-26T04:52:48.328Z,60.38
2018-07-26T04:53:48.240Z,64.50
2018-07-26T04:54:48.218Z,66.99
2018-07-26T04:55:48.150Z,66.42
2018-07-26T04:56:48.129Z,67.57
2018-07-26T04:57:48.084Z,73.51
2018-07-26T04:58:48.071Z,74.08
2018-07-26T04:59:48.022Z,75.90
2018-07-26T05:00:48.016Z,80.70
2018-07-26T05:01:47.953Z,84.00
2018-07-26T05:02:47.947Z,92.00
2018-07-26T05:03:47.896Z,99.20
2018-07-26T05:04:47.867Z,99.39
2018-07-26T05:05:47.855Z,99.49
2018-07-26T05:06:47.806Z,99.99
2018-07-26T05:07:47.761Z,99.99
2018-07-26T05:08:47.733Z,99.99
2018-07-26T05:09:47.693Z,99.99
2018-07-26T05:10:47.666Z,99.99
2018-07-26T05:11:47.664Z,99.99
2018-07-26T05:12:47.594Z,99.99
2018-07-26T05:13:47.559Z,99.99
2018-07-26T05:14:47.581Z,99.99
2018-07-26T05:15:47.506Z,99.99
2018-07-26T05:16:47.479Z,99.99
2018-07-26T05:17:47.439Z,99.99
2018-07-26T05:18:47.405Z,99.99
2018-07-26T05:19:47.382Z,99.99
2018-07-26T05:20:47.354Z,99.99
2018-07-26T05:21:47.312Z,96.70
2018-07-26T05:22:47.276Z,95.30
2018-07-26T05:23:47.262Z,91.63
2018-07-26T05:24:47.237Z,89.45
2018-07-26T05:25:47.176Z,90.66
2018-07-26T05:26:47.156Z,88.67
2018-07-26T05:27:47.160Z,87.03
2018-07-26T05:28:47.094Z,84.36
2018-07-26T05:29:47.077Z,82.47
2018-07-26T05:30:47.064Z,81.98
2018-07-26T05:31:47.009Z,81.50
2018-07-26T05:32:46.981Z,79.70
2018-07-26T05:33:46.964Z,78.29
2018-07-26T05:34:46.950Z,78.00
2018-07-26T05:35:46.903Z,77.67
2018-07-26T05:36:46.892Z,80.54
2018-07-26T05:37:46.855Z,86.83
2018-07-26T05:38:46.815Z,95.35
2018-07-26T05:39:46.789Z,99.99
2018-07-26T05:40:46.759Z,99.99
2018-07-26T05:41:46.735Z,99.99
2018-07-26T05:42:46.714Z,99.99
2018-07-26T05:43:46.677Z,99.99
2018-07-26T05:44:46.648Z,99.99
2018-07-26T05:45:46.699Z,99.99
2018-07-26T05:46:46.625Z,99.99
2018-07-26T05:47:46.564Z,99.99
2018-07-26T05:48:46.576Z,99.99
2018-07-26T05:49:46.570Z,99.99
2018-07-26T05:50:46.510Z,99.99
2018-07-26T05:51:46.494Z,99.99
2018-07-26T05:52:46.444Z,99.99
2018-07-26T05:53:46.404Z,99.99
2018-07-26T05:54:46.380Z,99.99
2018-07-26T05:55:46.353Z,99.99
2018-07-26T05:56:47.376Z,99.99
2018-07-26T05:57:46.299Z,99.99
2018-07-26T05:58:46.256Z,99.99
2018-07-26T05:59:46.227Z,99.99
2018-07-26T06:00:46.235Z,99.99
2018-07-26T06:01:46.188Z,99.99
2018-07-26T06:02:46.169Z,99.99
2018-07-26T06:03:46.120Z,99.99
2018-07-26T06:04:46.091Z,99.99
2018-07-26T06:05:46.057Z,99.99
2018-07-26T06:06:46.040Z,99.99
2018-07-26T06:07:46.012Z,99.99
2018-07-26T06:08:45.983Z,99.99
2018-07-26T06:09:46.008Z,99.99
2018-07-26T06:10:45.920Z,99.99
2018-07-26T06:11:45.894Z,99.99
2018-07-26T06:12:45.890Z,99.99
2018-07-26T06:13:45.834Z,99.99
2018-07-26T06:14:45.817Z,99.99
2018-07-26T06:15:45.782Z,99.99
2018-07-26T06:16:46.783Z,99.99
2018-07-26T06:17:45.721Z,99.99
2018-07-26T06:18:45.702Z,99.99
2018-07-26T06:19:45.656Z,99.99
2018-07-26T06:20:45.651Z,99.99
2018-07-26T06:21:45.606Z,99.99
2018-07-26T06:22:45.572Z,99.99
2018-07-26T06:23:45.548Z,99.99
2018-07-26T06:24:45.528Z,99.99
2018-07-26T06:25:45.494Z,99.99
2018-07-26T06:26:45.463Z,99.99
2018-07-26T06:27:45.444Z,99.99
2018-07-26T06:28:45.402Z,99.99
2018-07-26T06:29:45.386Z,99.99
2018-07-26T06:30:45.348Z,99.99
2018-07-26T06:31:45.315Z,99.99
2018-07-26T06:32:45.297Z,99.99
2018-07-26T06:33:45.303Z,99.99
2018-07-26T06:34:45.234Z,99.99
2018-07-26T06:35:45.196Z,99.99
2018-07-26T06:36:45.176Z,99.99
2018-07-26T06:37:45.153Z,99.99
2018-07-26T06:38:45.112Z,99.99
2018-07-26T06:39:45.093Z,99.99
2018-07-26T06:40:45.049Z,99.99
2018-07-26T06:41:45.030Z,99.99
2018-07-26T06:42:45.014Z,99.99
2018-07-26T06:43:45.014Z,99.99
2018-07-26T06:44:44.961Z,99.99
2018-07-26T06:45:44.918Z,99.99
2018-07-26T06:46:44.906Z,99.99
2018-07-26T06:47:44.876Z,99.99
2018-07-26T06:48:44.834Z,99.99
2018-07-26T06:49:44.810Z,99.99
2018-07-26T06:50:44.783Z,99.99
2018-07-26T06:51:44.746Z,99.99
2018-07-26T06:52:44.717Z,99.99
2018-07-26T06:53:44.693Z,99.99
2018-07-26T06:54:44.658Z,99.99
2018-07-26T06:55:44.657Z,99.99
2018-07-26T06:56:44.599Z,93.99
2018-07-26T06:57:44.600Z,97.81
2018-07-26T06:58:44.551Z,93.88
2018-07-26T06:59:44.508Z,85.60
2018-07-26T07:00:44.492Z,77.90
2018-07-26T07:01:44.503Z,74.22
2018-07-26T07:02:44.468Z,71.76
2018-07-26T07:03:44.409Z,66.47
2018-07-26T07:04:44.373Z,63.90
2018-07-26T07:05:44.339Z,62.79
2018-07-26T07:06:44.332Z,59.43
2018-07-26T07:07:44.317Z,57.50
2018-07-26T07:08:44.265Z,58.12
2018-07-26T07:09:44.244Z,57.49
2018-07-26T07:10:44.241Z,56.17
2018-07-26T07:11:44.203Z,55.91
2018-07-26T07:12:44.160Z,52.28
2018-07-26T07:13:44.150Z,53.45
2018-07-26T07:14:44.154Z,52.47
2018-07-26T07:15:44.110Z,52.86
2018-07-26T07:16:44.091Z,52.40
2018-07-26T07:17:44.081Z,51.64
2018-07-26T07:18:44.048Z,50.54
2018-07-26T07:19:44.014Z,51.86
2018-07-26T07:20:44.009Z,53.13
2018-07-26T07:21:43.983Z,52.20
2018-07-26T07:22:43.955Z,50.71
2018-07-26T07:23:43.951Z,51.90
2018-07-26T07:24:43.912Z,53.74
2018-07-26T07:25:43.885Z,54.36
2018-07-26T07:26:43.899Z,52.86
2018-07-26T07:27:43.923Z,53.57
2018-07-26T07:28:43.840Z,52.55
2018-07-26T07:29:43.811Z,53.09
2018-07-26T07:30:43.785Z,51.45
2018-07-26T07:31:43.763Z,51.37
2018-07-26T07:32:43.738Z,50.68
2018-07-26T07:33:43.721Z,49.31
2018-07-26T07:34:43.715Z,49.41
2018-07-26T07:35:43.690Z,49.92
2018-07-26T07:36:43.670Z,50.21
2018-07-26T07:37:43.664Z,50.42
2018-07-26T07:38:43.645Z,50.42
2018-07-26T07:39:43.633Z,50.39
2018-07-26T07:40:43.606Z,49.41
2018-07-26T07:41:43.644Z,48.62
2018-07-26T07:42:43.571Z,49.60
2018-07-26T07:43:43.549Z,49.01
2018-07-26T07:44:43.542Z,50.16
2018-07-26T07:45:43.521Z,49.36
2018-07-26T07:46:43.553Z,49.38
2018-07-26T07:47:43.548Z,48.74
2018-07-26T07:48:43.461Z,50.32
2018-07-26T07:49:43.452Z,48.94
2018-07-26T07:50:43.420Z,48.62
2018-07-26T07:51:43.408Z,49.33
2018-07-26T07:52:43.413Z,48.67
2018-07-26T07:53:43.389Z,48.27
2018-07-26T07:54:43.396Z,47.71
2018-07-26T07:55:43.350Z,47.02
2018-07-26T07:56:43.327Z,47.69
2018-07-26T07:57:43.320Z,47.88
2018-07-26T07:58:43.291Z,47.34
2018-07-26T07:59:43.319Z,49.01
2018-07-26T08:00:43.290Z,48.23
2018-07-26T08:01:43.246Z,48.91
2018-07-26T08:02:43.254Z,47.17
2018-07-26T08:03:43.274Z,47.36
2018-07-26T08:04:43.218Z,47.15
2018-07-26T08:05:43.196Z,46.88
2018-07-26T08:06:43.222Z,47.09
2018-07-26T08:07:43.158Z,47.80
2018-07-26T08:08:43.129Z,46.01
2018-07-26T08:09:43.132Z,46.50
2018-07-26T08:10:43.116Z,45.29
2018-07-26T08:11:43.137Z,44.38
2018-07-26T08:12:43.132Z,43.79
2018-07-26T08:13:43.062Z,45.05
2018-07-26T08:14:43.097Z,45.62
2018-07-26T08:15:43.022Z,45.99
2018-07-26T08:16:43.024Z,45.03
2018-07-26T08:17:42.994Z,44.46
2018-07-26T08:18:42.995Z,44.26
2018-07-26T08:19:42.979Z,47.00
2018-07-26T08:20:42.965Z,46.09
2018-07-26T08:21:42.948Z,46.70
2018-07-26T08:22:42.957Z,47.19
2018-07-26T08:23:42.925Z,45.45
2018-07-26T08:24:42.897Z,46.09
2018-07-26T08:25:42.877Z,46.17
2018-07-26T08:26:42.858Z,46.38
2018-07-26T08:27:42.852Z,45.15
2018-07-26T08:28:42.824Z,43.75
2018-07-26T08:29:42.892Z,44.76
2018-07-26T08:30:42.819Z,43.99
2018-07-26T08:31:42.797Z,43.70
2018-07-26T08:32:42.788Z,42.73
2018-07-26T08:33:42.745Z,43.32
2018-07-26T08:34:42.751Z,43.93
2018-07-26T08:35:42.745Z,43.32
2018-07-26T08:36:42.718Z,43.79
2018-07-26T08:37:42.697Z,43.48
2018-07-26T08:38:42.690Z,44.46
2018-07-26T08:39:42.664Z,44.29
2018-07-26T08:40:42.655Z,43.82
2018-07-26T08:41:42.637Z,41.17
2018-07-26T08:42:42.617Z,42.34
2018-07-26T08:43:42.654Z,43.71
2018-07-26T08:44:42.588Z,43.05
2018-07-26T08:45:42.657Z,43.07
2018-07-26T08:46:42.591Z,42.16
2018-07-26T08:47:42.539Z,42.47
2018-07-26T08:48:42.522Z,42.85
2018-07-26T08:49:42.508Z,43.93
2018-07-26T08:50:42.537Z,43.93
2018-07-26T08:51:42.487Z,42.77
2018-07-26T08:52:42.497Z,42.55
2018-07-26T08:53:42.464Z,42.93
2018-07-26T08:54:42.444Z,42.26
2018-07-26T08:55:42.430Z,42.97
2018-07-26T08:56:42.422Z,42.58
2018-07-26T08:57:42.390Z,39.89
2018-07-26T08:58:42.384Z,40.69
2018-07-26T08:59:42.374Z,41.27
2018-07-26T09:00:42.351Z,42.34
2018-07-26T09:01:42.336Z,44.07
2018-07-26T09:02:42.365Z,43.99
2018-07-26T09:03:42.301Z,43.03
2018-07-26T09:04:42.306Z,42.46
2018-07-26T09:05:42.276Z,41.20
2018-07-26T09:06:42.258Z,42.28
2018-07-26T09:07:42.246Z,42.20
2018-07-26T09:08:42.227Z,42.72
2018-07-26T09:09:42.224Z,41.43
2018-07-26T09:10:42.206Z,39.56
2018-07-26T09:11:42.205Z,41.25
2018-07-26T09:12:42.194Z,43.75
2018-07-26T09:13:42.185Z,47.03
2018-07-26T09:14:42.139Z,47.13
2018-07-26T09:15:42.125Z,48.06
2018-07-26T09:16:42.111Z,46.97
2018-07-26T09:17:42.100Z,44.58
2018-07-26T09:18:42.072Z,42.41
2018-07-26T09:19:42.058Z,42.20
2018-07-26T09:20:42.031Z,44.57
2018-07-26T09:21:42.027Z,46.74
2018-07-26T09:22:42.012Z,47.67
2018-07-26T09:23:42.023Z,48.72
2018-07-26T09:24:41.994Z,49.80
2018-07-26T09:25:41.965Z,51.63
2018-07-26T09:26:41.940Z,53.00
2018-07-26T09:27:41.941Z,52.51
2018-07-26T09:28:41.933Z,50.63
2018-07-26T09:29:41.909Z,51.95
2018-07-26T09:30:41.892Z,53.46
2018-07-26T09:31:41.866Z,53.83
2018-07-26T09:32:41.850Z,55.97
2018-07-26T09:33:41.831Z,53.91
2018-07-26T09:34:41.815Z,51.86
2018-07-26T09:35:41.805Z,48.52
2018-07-26T09:36:41.774Z,46.24
2018-07-26T09:37:41.778Z,45.79
2018-07-26T09:38:41.749Z,43.10
2018-07-26T09:39:41.729Z,46.13
2018-07-26T09:40:41.709Z,48.70
2018-07-26T09:41:41.673Z,51.51
2018-07-26T09:42:41.658Z,49.63
2018-07-26T09:43:41.671Z,49.75
2018-07-26T09:44:41.609Z,49.16
2018-07-26T09:45:41.596Z,47.76
2018-07-26T09:46:41.593Z,46.72
2018-07-26T09:47:41.562Z,42.63
2018-07-26T09:48:41.567Z,42.77
2018-07-26T09:49:41.579Z,41.89
2018-07-26T09:50:41.513Z,41.22
2018-07-26T09:51:41.510Z,40.84
2018-07-26T09:52:41.470Z,40.27
2018-07-26T09:53:41.467Z,39.70
2018-07-26T09:54:41.433Z,39.58
2018-07-26T09:55:41.437Z,40.58
2018-07-26T09:56:41.435Z,39.52
2018-07-26T09:57:41.370Z,42.08
2018-07-26T09:58:41.401Z,42.55
2018-07-26T09:59:41.355Z,42.65
2018-07-26T10:00:41.382Z,42.58
2018-07-26T10:01:41.308Z,43.76
2018-07-26T10:02:41.321Z,42.75
2018-07-26T10:03:41.275Z,42.67
2018-07-26T10:04:41.279Z,42.25
2018-07-26T10:05:41.266Z,42.16
2018-07-26T10:06:41.230Z,42.35
2018-07-26T10:07:41.198Z,44.06
2018-07-26T10:08:41.190Z,45.88
2018-07-26T10:09:41.181Z,44.77
2018-07-26T10:10:41.160Z,45.00
2018-07-26T10:11:41.155Z,46.72
2018-07-26T10:12:41.115Z,46.54
2018-07-26T10:13:41.146Z,45.53
2018-07-26T10:14:41.105Z,43.80
2018-07-26T10:15:41.089Z,43.75
2018-07-26T10:16:41.035Z,42.57
2018-07-26T10:17:41.019Z,42.34
2018-07-26T10:18:41.009Z,42.38
2018-07-26T10:19:40.992Z,40.43
2018-07-26T10:20:40.974Z,39.56
2018-07-26T10:21:40.957Z,39.09
2018-07-26T10:22:40.947Z,38.98
2018-07-26T10:23:40.914Z,41.00
2018-07-26T10:24:40.913Z,41.35
2018-07-26T10:25:40.890Z,42.73
2018-07-26T10:26:40.860Z,42.22
2018-07-26T10:27:40.883Z,41.31
2018-07-26T10:28:40.836Z,42.08
2018-07-26T10:29:40.816Z,42.40
2018-07-26T10:30:40.799Z,41.51
2018-07-26T10:31:40.813Z,42.49
2018-07-26T10:32:40.778Z,42.10
2018-07-26T10:33:40.771Z,42.69
2018-07-26T10:34:40.725Z,42.49
2018-07-26T10:35:40.732Z,42.57
2018-07-26T10:36:40.702Z,42.47
2018-07-26T10:37:40.674Z,42.30
2018-07-26T10:38:40.676Z,43.61
2018-07-26T10:39:40.636Z,45.27
2018-07-26T10:40:40.637Z,46.89
2018-07-26T10:41:40.600Z,47.82
2018-07-26T10:42:40.597Z,48.75
2018-07-26T10:43:40.574Z,48.93
2018-07-26T10:44:40.566Z,49.36
2018-07-26T10:45:40.545Z,47.08
2018-07-26T10:46:40.518Z,45.86
2018-07-26T10:47:40.517Z,45.14
2018-07-26T10:48:40.488Z,43.71
2018-07-26T10:49:40.487Z,42.49
2018-07-26T10:50:40.461Z,41.21
2018-07-26T10:51:40.440Z,40.23
2018-07-26T10:52:40.472Z,39.66
2018-07-26T10:53:40.407Z,37.42
2018-07-26T10:54:40.379Z,37.72
2018-07-26T10:55:40.361Z,38.62
2018-07-26T10:56:40.361Z,38.93
2018-07-26T10:57:40.334Z,36.67
2018-07-26T10:58:40.314Z,38.74
2018-07-26T10:59:40.288Z,39.17
2018-07-26T11:00:40.272Z,37.10
2018-07-26T11:01:40.245Z,37.38
2018-07-26T11:02:40.232Z,38.18
2018-07-26T11:03:40.251Z,37.08
2018-07-26T11:04:40.203Z,38.95
2018-07-26T11:05:40.195Z,37.97
2018-07-26T11:06:40.161Z,37.20
2018-07-26T11:07:40.140Z,35.72
2018-07-26T11:08:40.121Z,36.51
2018-07-26T11:09:40.148Z,37.08
2018-07-26T11:10:40.083Z,36.99
2018-07-26T11:11:40.064Z,37.10
2018-07-26T11:12:40.042Z,35.63
2018-07-26T11:13:40.032Z,36.04
2018-07-26T11:14:40.020Z,36.25
2018-07-26T11:15:39.991Z,36.65
2018-07-26T11:16:40.140Z,38.64
2018-07-26T11:17:39.944Z,36.76
2018-07-26T11:18:39.968Z,35.88
2018-07-26T11:19:39.926Z,36.25
2018-07-26T11:20:39.900Z,36.57
2018-07-26T11:21:39.891Z,37.95
2018-07-26T11:22:39.873Z,36.68
2018-07-26T11:23:39.856Z,36.17
2018-07-26T11:24:39.833Z,35.88
2018-07-26T11:25:39.861Z,38.34
2018-07-26T11:26:39.797Z,36.17
2018-07-26T11:27:39.776Z,36.63
2018-07-26T11:28:39.774Z,36.51
2018-07-26T11:29:39.811Z,38.07
2018-07-26T11:30:39.736Z,37.20
2018-07-26T11:31:39.722Z,38.13
2018-07-26T11:32:39.702Z,39.27
2018-07-26T11:33:39.681Z,39.84
2018-07-26T11:34:39.653Z,39.58
2018-07-26T11:35:39.647Z,37.74
2018-07-26T11:36:39.635Z,37.26
2018-07-26T11:37:39.645Z,36.18
2018-07-26T11:38:39.589Z,37.92
2018-07-26T11:39:39.577Z,40.01
2018-07-26T11:40:39.555Z,42.23
2018-07-26T11:41:39.542Z,42.80
2018-07-26T11:42:39.528Z,43.07
2018-07-26T11:43:39.566Z,44.23
2018-07-26T11:44:39.467Z,44.98
2018-07-26T11:45:39.463Z,44.81
2018-07-26T11:46:39.443Z,43.19
2018-07-26T11:47:39.449Z,42.91
2018-07-26T11:48:39.411Z,42.25
2018-07-26T11:49:39.396Z,41.68
2018-07-26T11:50:39.390Z,41.19
2018-07-26T11:51:39.365Z,42.52
2018-07-26T11:52:39.379Z,42.15
2018-07-26T11:53:39.356Z,41.02
2018-07-26T11:54:39.295Z,42.41
2018-07-26T11:55:39.340Z,40.39
2018-07-26T11:56:39.259Z,39.80
2018-07-26T11:57:39.231Z,40.39
2018-07-26T11:58:39.233Z,39.92
2018-07-26T11:59:39.209Z,38.17
2018-07-26T12:00:39.182Z,38.46
2018-07-26T12:01:39.167Z,38.54
2018-07-26T12:02:39.143Z,38.56
2018-07-26T12:03:39.142Z,39.54
2018-07-26T12:04:39.132Z,38.26
2018-07-26T12:05:39.098Z,37.63
2018-07-26T12:06:39.085Z,40.17
2018-07-26T12:07:39.120Z,41.33
2018-07-26T12:08:39.028Z,40.47
2018-07-26T12:09:39.070Z,40.69
2018-07-26T12:10:39.088Z,39.72
2018-07-26T12:11:39.017Z,40.13
2018-07-26T12:12:39.013Z,38.95
2018-07-26T12:13:38.993Z,37.20
2018-07-26T12:14:38.965Z,39.07
2018-07-26T12:15:38.955Z,37.08
2018-07-26T12:16:38.885Z,38.66
2018-07-26T12:17:38.887Z,38.17
2018-07-26T12:18:38.879Z,38.56
2018-07-26T12:19:38.862Z,36.59
2018-07-26T12:20:38.812Z,38.34
2018-07-26T12:21:38.810Z,38.15
2018-07-26T12:22:38.783Z,37.24
2018-07-26T12:23:38.859Z,37.82
2018-07-26T12:24:38.738Z,39.88
2018-07-26T12:25:38.724Z,38.42
2018-07-26T12:26:38.756Z,38.15
2018-07-26T12:27:38.701Z,37.18
2018-07-26T12:28:38.691Z,36.67
2018-07-26T12:29:38.660Z,38.66
2018-07-26T12:30:38.640Z,38.26
2018-07-26T12:31:38.619Z,37.87
2018-07-26T12:32:38.607Z,38.48
2018-07-26T12:33:38.589Z,36.53
2018-07-26T12:34:38.561Z,37.89
2018-07-26T12:35:38.566Z,37.41
2018-07-26T12:36:38.545Z,37.01
2018-07-26T12:37:38.532Z,36.33
2018-07-26T12:38:38.508Z,37.81
2018-07-26T12:39:38.497Z,36.55
2018-07-26T12:40:38.504Z,34.86
2018-07-26T12:41:38.447Z,34.87
2018-07-26T12:42:40.258Z,34.48
2018-07-26T12:43:38.470Z,34.56
2018-07-26T12:44:38.416Z,34.67
2018-07-26T12:45:38.400Z,36.36
2018-07-26T12:46:38.357Z,34.00
2018-07-26T12:47:38.408Z,32.42
2018-07-26T12:48:38.326Z,32.31
2018-07-26T12:49:38.322Z,33.54
2018-07-26T12:50:38.298Z,36.00
2018-07-26T12:51:38.377Z,34.31
2018-07-26T12:52:38.268Z,33.62
2018-07-26T12:53:38.248Z,34.33
2018-07-26T12:54:38.243Z,33.34
2018-07-26T12:55:38.274Z,33.17
2018-07-26T12:56:38.301Z,33.65
2018-07-26T12:57:38.180Z,35.69